sensor_id;sensor_type;location;lat;lon;timestamp;pressure;altitude;pressure_sealevel;temperature;humidity
62152;BME280;48139;47.474;19.034;2023-11-21T04:40:44;99925.97;;;6.13;100.00
62152;BME280;48139;47.474;19.034;2023-11-21T04:43:47;99925.97;;;6.13;100.00
62152;BME280;48139;47.474;19.034;2023-11-21T04:46:50;99929.22;;;5.68;100.00
62152;BME280;48139;47.474;19.034;2023-11-21T04:49:53;99948.25;;;5.69;100.00
62152;BME280;48139;47.474;19.034;2023-11-21T04:52:56;99950.97;;;5.66;100.00
62152;BME280;48139;47.474;19.034;2023-11-21T04:55:59;99961.41;;;5.64;100.00
62152;BME280;48139;47.474;19.034;2023-11-21T04:59:01;99965.50;;;5.72;100.00
62152;BME280;48139;47.474;19.034;2023-11-21T05:02:04;99967.25;;;5.97;100.00
62152;BME280;48139;47.474;19.034;2023-11-21T05:05:08;99973.34;;;5.96;100.00
62152;BME280;48139;47.474;19.034;2023-11-21T05:08:13;99977.03;;;5.91;100.00
62152;BME280;48139;47.474;19.034;2023-11-21T05:11:24;99978.19;;;6.07;100.00
62152;BME280;48139;47.474;19.034;2023-11-21T05:14:27;99976.78;;;6.46;100.00
62152;BME280;48139;47.474;19.034;2023-11-21T05:17:30;99978.78;;;6.38;100.00
62152;BME280;48139;47.474;19.034;2023-11-21T05:20:34;99972.47;;;6.45;100.00
62152;BME280;48139;47.474;19.034;2023-11-21T05:23:36;99964.44;;;6.52;100.00
62152;BME280;48139;47.474;19.034;2023-11-21T05:26:40;99956.00;;;6.45;100.00
62152;BME280;48139;47.474;19.034;2023-11-21T05:29:42;99954.06;;;6.50;100.00
62152;BME280;48139;47.474;19.034;2023-11-21T05:32:45;99957.44;;;6.54;100.00
62152;BME280;48139;47.474;19.034;2023-11-21T05:35:49;99953.72;;;6.61;100.00
62152;BME280;48139;47.474;19.034;2023-11-21T05:38:52;99962.41;;;6.60;100.00
62152;BME280;48139;47.474;19.034;2023-11-21T05:41:55;99961.75;;;6.55;100.00
62152;BME280;48139;47.474;19.034;2023-11-21T05:44:58;99954.56;;;6.61;100.00
62152;BME280;48139;47.474;19.034;2023-11-21T05:48:16;99955.44;;;6.60;100.00
62152;BME280;48139;47.474;19.034;2023-11-21T05:51:19;99957.59;;;6.72;100.00
62152;BME280;48139;47.474;19.034;2023-11-21T05:54:21;99953.78;;;6.81;100.00
62152;BME280;48139;47.474;19.034;2023-11-21T05:57:25;99955.47;;;7.05;100.00
62152;BME280;48139;47.474;19.034;2023-11-21T06:00:28;99958.47;;;6.95;100.00
62152;BME280;48139;47.474;19.034;2023-11-21T06:03:30;99972.16;;;7.00;100.00
62152;BME280;48139;47.474;19.034;2023-11-21T06:06:33;99986.94;;;7.21;100.00
62152;BME280;48139;47.474;19.034;2023-11-21T06:09:37;99985.81;;;7.28;100.00
62152;BME280;48139;47.474;19.034;2023-11-21T06:12:40;99995.38;;;7.27;100.00
62152;BME280;48139;47.474;19.034;2023-11-21T06:15:45;99995.31;;;7.29;100.00
62152;BME280;48139;47.474;19.034;2023-11-21T06:18:47;100000.72;;;7.24;100.00
62152;BME280;48139;47.474;19.034;2023-11-21T06:21:50;100011.19;;;7.00;100.00
62152;BME280;48139;47.474;19.034;2023-11-21T06:24:53;100009.34;;;7.03;100.00
62152;BME280;48139;47.474;19.034;2023-11-21T06:27:55;100014.28;;;7.11;100.00
62152;BME280;48139;47.474;19.034;2023-11-21T06:30:58;100022.12;;;7.09;100.00
62152;BME280;48139;47.474;19.034;2023-11-21T06:34:07;100024.59;;;7.12;100.00
62152;BME280;48139;47.474;19.034;2023-11-21T06:37:13;100038.81;;;7.05;100.00
62152;BME280;48139;47.474;19.034;2023-11-21T06:40:17;100047.22;;;6.88;100.00
62152;BME280;48139;47.474;19.034;2023-11-21T06:43:22;100047.06;;;6.93;100.00
62152;BME280;48139;47.474;19.034;2023-11-21T06:46:25;100046.25;;;6.91;100.00
62152;BME280;48139;47.474;19.034;2023-11-21T06:49:28;100054.81;;;6.95;100.00
62152;BME280;48139;47.474;19.034;2023-11-21T06:52:32;100056.09;;;7.06;100.00
62152;BME280;48139;47.474;19.034;2023-11-21T06:55:35;100062.91;;;7.10;100.00
62152;BME280;48139;47.474;19.034;2023-11-21T06:58:38;100051.69;;;7.08;100.00
62152;BME280;48139;47.474;19.034;2023-11-21T07:01:42;100050.75;;;7.11;100.00
62152;BME280;48139;47.474;19.034;2023-11-21T07:04:46;100051.69;;;7.08;100.00
62152;BME280;48139;47.474;19.034;2023-11-21T07:07:49;100049.03;;;7.10;100.00
62152;BME280;48139;47.474;19.034;2023-11-21T07:10:52;100054.47;;;7.04;100.00
62152;BME280;48139;47.474;19.034;2023-11-21T07:13:55;100062.31;;;7.25;100.00
62152;BME280;48139;47.474;19.034;2023-11-21T07:16:58;100065.13;;;7.43;100.00
62152;BME280;48139;47.474;19.034;2023-11-21T07:20:05;100072.94;;;7.43;100.00
62152;BME280;48139;47.474;19.034;2023-11-21T07:23:09;100067.56;;;7.47;100.00
62152;BME280;48139;47.474;19.034;2023-11-21T07:26:13;100075.38;;;7.47;100.00
62152;BME280;48139;47.474;19.034;2023-11-21T07:29:15;100077.69;;;7.55;100.00
62152;BME280;48139;47.474;19.034;2023-11-21T07:32:18;100074.69;;;7.64;100.00
62152;BME280;48139;47.474;19.034;2023-11-21T07:35:21;100073.25;;;7.57;100.00
62152;BME280;48139;47.474;19.034;2023-11-21T07:38:23;100067.91;;;7.60;100.00
62152;BME280;48139;47.474;19.034;2023-11-21T07:41:26;100059.34;;;7.56;100.00
62152;BME280;48139;47.474;19.034;2023-11-21T07:44:33;100061.81;;;7.61;100.00
62152;BME280;48139;47.474;19.034;2023-11-21T07:47:36;100061.44;;;7.70;100.00
62152;BME280;48139;47.474;19.034;2023-11-21T07:50:39;100071.75;;;7.93;100.00
62152;BME280;48139;47.474;19.034;2023-11-21T07:53:41;100062.28;;;7.92;100.00
62152;BME280;48139;47.474;19.034;2023-11-21T07:56:44;100067.22;;;7.98;100.00
62152;BME280;48139;47.474;19.034;2023-11-21T07:59:48;100079.03;;;8.07;100.00
62152;BME280;48139;47.474;19.034;2023-11-21T08:02:50;100070.03;;;8.14;100.00
62152;BME280;48139;47.474;19.034;2023-11-21T08:05:53;100060.78;;;8.27;100.00
62152;BME280;48139;47.474;19.034;2023-11-21T08:08:56;100060.19;;;8.42;100.00
62152;BME280;48139;47.474;19.034;2023-11-21T08:11:59;100057.41;;;8.66;100.00
62152;BME280;48139;47.474;19.034;2023-11-21T08:15:05;100063.84;;;8.77;100.00
62152;BME280;48139;47.474;19.034;2023-11-21T08:18:08;100065.97;;;8.88;100.00
62152;BME280;48139;47.474;19.034;2023-11-21T08:21:12;100068.88;;;9.01;100.00
62152;BME280;48139;47.474;19.034;2023-11-21T08:24:15;100069.69;;;9.03;100.00
62152;BME280;48139;47.474;19.034;2023-11-21T08:27:18;100057.16;;;8.90;100.00
62152;BME280;48139;47.474;19.034;2023-11-21T08:30:22;100049.47;;;9.06;100.00
62152;BME280;48139;47.474;19.034;2023-11-21T08:33:26;100049.34;;;8.90;100.00
62152;BME280;48139;47.474;19.034;2023-11-21T08:36:28;100045.25;;;9.04;100.00
62152;BME280;48139;47.474;19.034;2023-11-21T08:39:31;100053.72;;;8.90;100.00
62152;BME280;48139;47.474;19.034;2023-11-21T08:42:35;100050.16;;;8.72;100.00
62152;BME280;48139;47.474;19.034;2023-11-21T08:45:38;100048.69;;;8.85;100.00
62152;BME280;48139;47.474;19.034;2023-11-21T08:48:41;100055.97;;;8.98;100.00
62152;BME280;48139;47.474;19.034;2023-11-21T08:51:44;100043.19;;;8.92;100.00
62152;BME280;48139;47.474;19.034;2023-11-21T08:54:47;100047.06;;;9.02;100.00
62152;BME280;48139;47.474;19.034;2023-11-21T08:57:50;100039.41;;;9.17;100.00
62152;BME280;48139;47.474;19.034;2023-11-21T09:00:56;100049.28;;;9.11;100.00
62152;BME280;48139;47.474;19.034;2023-11-21T09:03:59;100053.09;;;9.04;100.00
62152;BME280;48139;47.474;19.034;2023-11-21T09:07:02;100057.75;;;8.97;100.00
62152;BME280;48139;47.474;19.034;2023-11-21T09:10:05;100057.22;;;8.89;100.00
62152;BME280;48139;47.474;19.034;2023-11-21T09:13:10;100059.06;;;8.87;100.00
62152;BME280;48139;47.474;19.034;2023-11-21T09:16:14;100053.00;;;8.86;100.00
62152;BME280;48139;47.474;19.034;2023-11-21T09:19:18;100053.81;;;8.87;100.00
62152;BME280;48139;47.474;19.034;2023-11-21T09:22:22;100044.16;;;8.89;100.00
62152;BME280;48139;47.474;19.034;2023-11-21T09:25:25;100052.72;;;8.93;100.00
62152;BME280;48139;47.474;19.034;2023-11-21T09:28:27;100040.53;;;8.93;100.00
62152;BME280;48139;47.474;19.034;2023-11-21T09:31:30;100042.06;;;8.97;100.00
62152;BME280;48139;47.474;19.034;2023-11-21T09:34:34;100036.63;;;9.02;100.00
62152;BME280;48139;47.474;19.034;2023-11-21T09:37:40;100026.06;;;9.05;100.00
62152;BME280;48139;47.474;19.034;2023-11-21T09:40:43;100019.53;;;9.13;100.00
62152;BME280;48139;47.474;19.034;2023-11-21T09:43:47;100024.75;;;9.13;100.00
62152;BME280;48139;47.474;19.034;2023-11-21T09:46:56;100014.19;;;9.16;100.00
62152;BME280;48139;47.474;19.034;2023-11-21T09:50:02;100004.56;;;9.17;100.00
62152;BME280;48139;47.474;19.034;2023-11-21T09:53:18;100006.75;;;9.26;100.00
62152;BME280;48139;47.474;19.034;2023-11-21T09:56:25;100001.22;;;9.32;100.00
62152;BME280;48139;47.474;19.034;2023-11-21T09:59:30;100004.00;;;9.29;100.00
62152;BME280;48139;47.474;19.034;2023-11-21T10:02:33;100003.78;;;9.34;100.00
62152;BME280;48139;47.474;19.034;2023-11-21T10:05:41;100003.91;;;9.49;100.00
62152;BME280;48139;47.474;19.034;2023-11-21T10:08:45;99995.84;;;9.71;100.00
62152;BME280;48139;47.474;19.034;2023-11-21T10:11:58;100003.31;;;9.61;100.00
62152;BME280;48139;47.474;19.034;2023-11-21T10:15:06;99995.78;;;9.73;100.00
62152;BME280;48139;47.474;19.034;2023-11-21T10:18:10;99995.47;;;9.79;100.00
62152;BME280;48139;47.474;19.034;2023-11-21T10:21:13;99998.31;;;9.74;100.00
62152;BME280;48139;47.474;19.034;2023-11-21T10:24:16;99989.69;;;9.72;100.00
62152;BME280;48139;47.474;19.034;2023-11-21T10:27:20;99988.91;;;9.70;100.00
62152;BME280;48139;47.474;19.034;2023-11-21T10:30:28;99992.00;;;9.95;100.00
62152;BME280;48139;47.474;19.034;2023-11-21T10:33:31;99990.41;;;9.93;100.00
62152;BME280;48139;47.474;19.034;2023-11-21T10:36:35;99978.03;;;10.12;100.00
62152;BME280;48139;47.474;19.034;2023-11-21T10:39:39;99986.41;;;10.20;100.00
62152;BME280;48139;47.474;19.034;2023-11-21T10:42:42;99984.13;;;10.12;100.00
62152;BME280;48139;47.474;19.034;2023-11-21T10:45:47;99988.16;;;10.02;100.00
62152;BME280;48139;47.474;19.034;2023-11-21T10:48:54;99987.84;;;10.26;100.00
62152;BME280;48139;47.474;19.034;2023-11-21T10:51:59;99988.38;;;10.32;100.00
62152;BME280;48139;47.474;19.034;2023-11-21T10:55:16;99984.84;;;10.33;100.00
62152;BME280;48139;47.474;19.034;2023-11-21T10:58:18;99982.81;;;10.38;100.00
62152;BME280;48139;47.474;19.034;2023-11-21T11:01:24;99991.91;;;10.48;100.00
62152;BME280;48139;47.474;19.034;2023-11-21T11:04:32;99987.19;;;10.55;100.00
62152;BME280;48139;47.474;19.034;2023-11-21T11:07:36;99983.41;;;10.61;100.00
62152;BME280;48139;47.474;19.034;2023-11-21T11:10:42;99986.44;;;10.69;100.00
62152;BME280;48139;47.474;19.034;2023-11-21T11:13:45;99980.94;;;10.58;100.00
62152;BME280;48139;47.474;19.034;2023-11-21T11:16:48;99985.28;;;10.41;100.00
62152;BME280;48139;47.474;19.034;2023-11-21T11:19:52;99982.94;;;10.37;100.00
62152;BME280;48139;47.474;19.034;2023-11-21T11:23:19;99975.94;;;10.20;100.00
62152;BME280;48139;47.474;19.034;2023-11-21T11:33:21;99974.72;;;9.93;100.00
62152;BME280;48139;47.474;19.034;2023-11-21T11:36:37;99969.84;;;9.85;100.00
62152;BME280;48139;47.474;19.034;2023-11-21T11:39:43;99961.84;;;9.88;100.00
62152;BME280;48139;47.474;19.034;2023-11-21T11:42:58;99960.00;;;9.90;100.00
62152;BME280;48139;47.474;19.034;2023-11-21T11:46:05;99950.22;;;9.94;100.00
62152;BME280;48139;47.474;19.034;2023-11-21T11:49:08;99945.59;;;9.99;100.00
62152;BME280;48139;47.474;19.034;2023-11-21T11:55:35;99949.63;;;10.39;100.00
62152;BME280;48139;47.474;19.034;2023-11-21T11:58:38;99947.47;;;10.47;100.00
62152;BME280;48139;47.474;19.034;2023-11-21T12:01:45;99948.37;;;10.46;100.00
62152;BME280;48139;47.474;19.034;2023-11-21T12:04:49;99938.22;;;10.24;100.00
62152;BME280;48139;47.474;19.034;2023-11-21T12:08:06;99941.13;;;10.18;100.00
62152;BME280;48139;47.474;19.034;2023-11-21T12:11:33;99932.63;;;10.13;100.00
62152;BME280;48139;47.474;19.034;2023-11-21T12:14:37;99934.81;;;10.05;100.00
62152;BME280;48139;47.474;19.034;2023-11-21T12:17:44;99936.81;;;10.00;100.00
62152;BME280;48139;47.474;19.034;2023-11-21T12:20:47;99936.91;;;9.98;100.00
62152;BME280;48139;47.474;19.034;2023-11-21T12:23:53;99941.91;;;10.03;100.00
62152;BME280;48139;47.474;19.034;2023-11-21T12:26:57;99938.38;;;10.04;100.00
62152;BME280;48139;47.474;19.034;2023-11-21T12:30:00;99929.16;;;10.12;100.00
62152;BME280;48139;47.474;19.034;2023-11-21T12:33:02;99932.09;;;10.06;100.00
62152;BME280;48139;47.474;19.034;2023-11-21T12:36:07;99924.87;;;10.11;100.00
62152;BME280;48139;47.474;19.034;2023-11-21T12:39:12;99925.22;;;10.05;100.00
62152;BME280;48139;47.474;19.034;2023-11-21T12:42:17;99923.84;;;9.98;100.00
62152;BME280;48139;47.474;19.034;2023-11-21T12:45:22;99914.88;;;10.02;100.00
62152;BME280;48139;47.474;19.034;2023-11-21T12:48:25;99911.94;;;10.08;100.00
62152;BME280;48139;47.474;19.034;2023-11-21T12:51:29;99911.28;;;10.05;100.00
62152;BME280;48139;47.474;19.034;2023-11-21T12:54:35;99920.47;;;10.12;100.00
62152;BME280;48139;47.474;19.034;2023-11-21T12:57:41;99913.03;;;10.22;100.00
62152;BME280;48139;47.474;19.034;2023-11-21T13:00:47;99915.66;;;10.22;100.00
62152;BME280;48139;47.474;19.034;2023-11-21T13:03:50;99918.28;;;10.22;100.00
62152;BME280;48139;47.474;19.034;2023-11-21T13:06:53;99912.19;;;10.21;100.00
62152;BME280;48139;47.474;19.034;2023-11-21T13:09:58;99912.03;;;10.24;100.00
62152;BME280;48139;47.474;19.034;2023-11-21T13:13:06;99920.72;;;10.25;100.00
62152;BME280;48139;47.474;19.034;2023-11-21T13:16:11;99919.03;;;10.24;100.00
62152;BME280;48139;47.474;19.034;2023-11-21T13:19:14;99916.31;;;10.25;100.00
62152;BME280;48139;47.474;19.034;2023-11-21T13:22:17;99918.25;;;10.55;100.00
62152;BME280;48139;47.474;19.034;2023-11-21T13:25:21;99927.84;;;10.38;100.00
62152;BME280;48139;47.474;19.034;2023-11-21T13:28:24;99913.62;;;10.27;100.00
62152;BME280;48139;47.474;19.034;2023-11-21T13:31:29;99914.81;;;10.21;100.00
62152;BME280;48139;47.474;19.034;2023-11-21T13:34:35;99927.16;;;10.35;100.00
62152;BME280;48139;47.474;19.034;2023-11-21T13:37:39;99929.31;;;10.60;100.00
62152;BME280;48139;47.474;19.034;2023-11-21T13:40:46;99931.03;;;10.76;100.00
62152;BME280;48139;47.474;19.034;2023-11-21T13:43:51;99930.34;;;10.73;100.00
62152;BME280;48139;47.474;19.034;2023-11-21T13:47:08;99932.37;;;10.83;100.00
62152;BME280;48139;47.474;19.034;2023-11-21T13:50:11;99923.00;;;10.79;100.00
62152;BME280;48139;47.474;19.034;2023-11-21T13:53:19;99926.44;;;10.48;100.00
62152;BME280;48139;47.474;19.034;2023-11-21T13:56:25;99925.94;;;10.58;100.00
62152;BME280;48139;47.474;19.034;2023-11-21T13:59:30;99928.16;;;10.32;100.00
62152;BME280;48139;47.474;19.034;2023-11-21T14:02:34;99926.97;;;10.05;100.00
62152;BME280;48139;47.474;19.034;2023-11-21T14:05:44;99927.19;;;10.00;100.00
62152;BME280;48139;47.474;19.034;2023-11-21T14:08:48;99934.38;;;9.97;100.00
62152;BME280;48139;47.474;19.034;2023-11-21T14:11:52;99935.81;;;10.02;100.00
62152;BME280;48139;47.474;19.034;2023-11-21T14:14:58;99943.91;;;9.98;100.00
62152;BME280;48139;47.474;19.034;2023-11-21T14:18:01;99943.91;;;9.98;100.00
62152;BME280;48139;47.474;19.034;2023-11-21T14:21:08;99951.47;;;9.87;100.00
62152;BME280;48139;47.474;19.034;2023-11-21T14:24:14;99952.69;;;9.80;100.00
62152;BME280;48139;47.474;19.034;2023-11-21T14:27:19;99965.00;;;9.78;100.00
62152;BME280;48139;47.474;19.034;2023-11-21T14:30:22;99954.44;;;9.62;100.00
62152;BME280;48139;47.474;19.034;2023-11-21T14:33:25;99964.13;;;9.94;100.00
62152;BME280;48139;47.474;19.034;2023-11-21T14:36:28;99963.59;;;9.88;100.00
62152;BME280;48139;47.474;19.034;2023-11-21T14:39:31;99969.31;;;9.61;100.00
62152;BME280;48139;47.474;19.034;2023-11-21T14:42:37;99971.56;;;9.33;100.00
62152;BME280;48139;47.474;19.034;2023-11-21T14:45:42;99972.06;;;9.22;100.00
62152;BME280;48139;47.474;19.034;2023-11-21T14:48:45;99965.00;;;9.24;100.00
62152;BME280;48139;47.474;19.034;2023-11-21T14:52:01;99966.34;;;9.14;100.00
62152;BME280;48139;47.474;19.034;2023-11-21T14:55:06;99960.81;;;9.03;100.00
62152;BME280;48139;47.474;19.034;2023-11-21T14:58:44;99967.62;;;9.06;100.00
62152;BME280;48139;47.474;19.034;2023-11-21T15:01:47;99972.59;;;9.12;100.00
62152;BME280;48139;47.474;19.034;2023-11-21T15:04:58;99977.25;;;9.24;100.00
62152;BME280;48139;47.474;19.034;2023-11-21T15:08:05;99977.66;;;9.15;100.00
62152;BME280;48139;47.474;19.034;2023-11-21T15:11:24;99979.59;;;9.11;100.00
62152;BME280;48139;47.474;19.034;2023-11-21T15:14:33;99976.31;;;9.06;100.00
62152;BME280;48139;47.474;19.034;2023-11-21T15:17:38;99975.47;;;9.06;100.00
62152;BME280;48139;47.474;19.034;2023-11-21T15:20:46;99968.63;;;9.03;100.00
62152;BME280;48139;47.474;19.034;2023-11-21T15:23:49;99977.53;;;8.99;100.00
62152;BME280;48139;47.474;19.034;2023-11-21T15:26:52;99971.75;;;8.93;100.00
62152;BME280;48139;47.474;19.034;2023-11-21T15:29:54;99976.13;;;8.92;100.00
62152;BME280;48139;47.474;19.034;2023-11-21T15:32:58;99976.47;;;8.84;100.00
62152;BME280;48139;47.474;19.034;2023-11-21T15:36:01;99966.38;;;8.77;100.00
62152;BME280;48139;47.474;19.034;2023-11-21T15:39:05;99969.00;;;8.77;100.00
62152;BME280;48139;47.474;19.034;2023-11-21T15:42:07;99974.22;;;8.77;100.00
62152;BME280;48139;47.474;19.034;2023-11-21T15:45:12;99972.66;;;8.73;100.00
62152;BME280;48139;47.474;19.034;2023-11-21T15:48:14;99964.91;;;8.71;100.00
62152;BME280;48139;47.474;19.034;2023-11-21T15:51:19;99965.88;;;8.69;100.00
62152;BME280;48139;47.474;19.034;2023-11-21T15:54:23;99973.34;;;8.58;100.00
62152;BME280;48139;47.474;19.034;2023-11-21T15:57:27;99967.56;;;8.51;100.00
62152;BME280;48139;47.474;19.034;2023-11-21T16:00:29;99972.28;;;8.43;100.00
62152;BME280;48139;47.474;19.034;2023-11-21T16:03:32;99979.84;;;8.49;100.00
62152;BME280;48139;47.474;19.034;2023-11-21T16:06:36;99967.88;;;8.43;100.00
62152;BME280;48139;47.474;19.034;2023-11-21T16:09:41;99970.06;;;8.34;100.00
62152;BME280;48139;47.474;19.034;2023-11-21T16:12:45;99970.97;;;8.33;100.00
62152;BME280;48139;47.474;19.034;2023-11-21T16:15:48;99979.09;;;8.25;100.00
62152;BME280;48139;47.474;19.034;2023-11-21T16:18:53;99971.50;;;8.21;100.00
62152;BME280;48139;47.474;19.034;2023-11-21T16:21:56;99975.00;;;8.20;100.00
62152;BME280;48139;47.474;19.034;2023-11-21T16:24:59;99976.38;;;8.08;100.00
62152;BME280;48139;47.474;19.034;2023-11-21T16:28:03;99977.66;;;7.99;100.00
62152;BME280;48139;47.474;19.034;2023-11-21T16:31:08;99979.53;;;7.96;100.00
62152;BME280;48139;47.474;19.034;2023-11-21T16:34:14;99980.50;;;7.93;100.00
62152;BME280;48139;47.474;19.034;2023-11-21T16:37:22;99975.84;;;8.00;100.00
62152;BME280;48139;47.474;19.034;2023-11-21T16:40:25;99974.78;;;8.05;100.00
62152;BME280;48139;47.474;19.034;2023-11-21T16:43:29;99976.84;;;7.97;100.00
62152;BME280;48139;47.474;19.034;2023-11-21T16:46:32;99978.81;;;7.92;100.00
62152;BME280;48139;47.474;19.034;2023-11-21T16:49:35;99980.63;;;7.90;100.00
62152;BME280;48139;47.474;19.034;2023-11-21T16:52:42;99976.97;;;7.94;100.00
62152;BME280;48139;47.474;19.034;2023-11-21T16:55:45;99983.94;;;7.94;100.00
62152;BME280;48139;47.474;19.034;2023-11-21T16:58:51;99981.53;;;7.89;100.00
62152;BME280;48139;47.474;19.034;2023-11-21T17:01:53;99988.41;;;7.92;100.00
